CST,Max TemperatureF,Mean TemperatureF,Min TemperatureF,Max Dew PointF,MeanDew PointF,Min DewpointF,Max Humidity, Mean Humidity, Min Humidity, Max Sea Level PressureIn, Mean Sea Level PressureIn, Min Sea Level PressureIn, Max VisibilityMiles, Mean VisibilityMiles, Min VisibilityMiles, Max Wind SpeedMPH, Mean Wind SpeedMPH, Max Gust SpeedMPH,PrecipitationIn, CloudCover, Events, WindDirDegrees
2013-1-1,25,18,10,16,10,2,85,76,65,,,,,,,13,6,,0.00,,,303
2013-1-2,32,21,10,21,10,3,74,65,51,,,,,,,15,9,,0.00,,,280
2013-1-3,28,19,10,16,9,2,74,65,52,,,,,,,14,7,,0.00,,,251
2013-1-4,35,22,9,21,10,-1,72,60,48,,,,,,,15,10,,0.00,,,231
2013-1-5,39,27,15,23,14,3,77,57,38,,,,,,,29,11,,0.00,,,289
2013-1-6,41,31,21,23,17,10,69,56,41,,,,,,,17,10,,0.00,,,219
2013-1-7,44,37,30,29,21,16,67,55,48,,,,,,,21,15,,0.00,,,214
2013-1-8,48,39,30,29,23,19,72,58,34,,,,,,,13,9,,0.00,,,288
2013-1-9,51,40,28,29,25,19,75,60,36,,,,,,,9,6,,0.00,,,344
2013-1-10,48,40,33,37,32,28,89,77,60,,,,,,,17,7,,0.00,,,224
2013-1-11,57,44,28,30,19,3,60,37,21,,,,,,,34,17,,0.00,,,238
2013-1-12,28,22,15,13,8,4,78,59,36,,,,,,,14,7,,0.00,,,18
2013-1-13,27,18,10,10,6,1,77,63,45,,,,,,,12,6,,0.00,,,21
2013-1-14,28,22,15,15,8,3,85,60,38,,,,,,,18,9,,0.00,,,152
2013-1-15,30,21,12,15,11,6,88,68,47,,,,,,,13,6,,0.00,,,264
2013-1-16,52,36,19,27,19,6,60,48,35,,,,,,,16,9,,0.00,,,309
2013-1-17,53,40,26,24,19,16,66,49,30,,,,,,,14,7,,0.00,,,240
2013-1-18,62,48,33,26,21,16,57,41,21,,,,,,,18,11,,0.00,,,232
2013-1-19,59,46,34,21,15,8,54,33,20,,,,,,,18,10,,0.00,,,315
2013-1-20,54,40,25,20,16,13,75,40,21,,,,,,,23,12,,0.00,,,311
2013-1-21,50,36,21,26,20,15,82,62,38,,,,,,,14,6,,0.00,,,205
2013-1-22,62,46,30,21,17,14,59,39,18,,,,,,,14,9,,0.00,,,167
2013-1-23,73,50,27,21,17,11,64,40,11,,,,,,,12,7,,0.00,,,244
2013-1-24,37,29,21,24,19,14,82,71,52,,,,,,,12,6,,0.00,,,123
2013-1-25,54,41,28,25,20,17,75,49,27,,,,,,,12,6,,0.00,,,51
2013-1-26,61,44,27,37,27,18,72,53,36,,,,,,,20,11,,0.00,,,172
2013-1-27,70,56,41,39,34,26,71,50,30,,,,,,,21,14,,0.00,,,206
2013-1-28,66,52,37,33,28,24,68,42,24,,,,,,,30,14,,0.00,,,218
2013-1-29,50,36,23,30,23,12,82,71,39,,,,,,,23,10,,0.00,,,346
2013-1-30,43,31,19,18,11,8,69,48,27,,,,,,,18,12,,0.00,,,275
2013-1-31,46,32,19,25,18,12,75,52,38,,,,,,,16,10,,0.00,,,54